sensor_id;sensor_type;location;lat;lon;timestamp;pressure;altitude;pressure_sealevel;temperature;humidity
31483;BME280;18103;52.246;8.052;2023-10-31T00:00:25;98170.00;;;13.50;96.39
31483;BME280;18103;52.246;8.052;2023-10-31T00:02:50;98166.06;;;13.39;99.42
31483;BME280;18103;52.246;8.052;2023-10-31T00:05:15;98170.00;;;13.28;98.62
31483;BME280;18103;52.246;8.052;2023-10-31T00:07:46;98170.63;;;13.30;99.03
31483;BME280;18103;52.246;8.052;2023-10-31T00:10:12;98167.88;;;13.39;97.67
31483;BME280;18103;52.246;8.052;2023-10-31T00:12:40;98164.88;;;13.48;96.95
31483;BME280;18103;52.246;8.052;2023-10-31T00:15:07;98163.63;;;13.44;97.44
31483;BME280;18103;52.246;8.052;2023-10-31T00:17:33;98163.47;;;13.52;97.26
31483;BME280;18103;52.246;8.052;2023-10-31T00:20:01;98156.97;;;13.55;96.36
31483;BME280;18103;52.246;8.052;2023-10-31T00:22:26;98165.91;;;13.47;97.50
31483;BME280;18103;52.246;8.052;2023-10-31T00:24:56;98171.44;;;13.52;96.52
31483;BME280;18103;52.246;8.052;2023-10-31T00:27:21;98175.47;;;13.42;98.10
31483;BME280;18103;52.246;8.052;2023-10-31T00:29:47;98183.88;;;13.30;98.69
31483;BME280;18103;52.246;8.052;2023-10-31T00:32:15;98174.31;;;13.29;99.06
31483;BME280;18103;52.246;8.052;2023-10-31T00:34:40;98172.28;;;13.31;100.00
31483;BME280;18103;52.246;8.052;2023-10-31T00:37:08;98170.31;;;13.40;98.77
31483;BME280;18103;52.246;8.052;2023-10-31T00:39:33;98176.88;;;13.44;98.36
31483;BME280;18103;52.246;8.052;2023-10-31T00:41:59;98174.81;;;13.40;98.75
31483;BME280;18103;52.246;8.052;2023-10-31T00:44:26;98168.94;;;13.44;97.92
31483;BME280;18103;52.246;8.052;2023-10-31T00:46:52;98175.88;;;13.45;97.48
31483;BME280;18103;52.246;8.052;2023-10-31T00:49:20;98166.28;;;13.44;97.73
31483;BME280;18103;52.246;8.052;2023-10-31T00:51:45;98162.38;;;13.40;97.91
31483;BME280;18103;52.246;8.052;2023-10-31T00:54:10;98158.91;;;13.40;97.61
31483;BME280;18103;52.246;8.052;2023-10-31T00:56:38;98153.28;;;13.49;97.78
31483;BME280;18103;52.246;8.052;2023-10-31T00:59:05;98154.91;;;13.50;96.69
31483;BME280;18103;52.246;8.052;2023-10-31T01:01:33;98158.56;;;13.49;97.48
31483;BME280;18103;52.246;8.052;2023-10-31T01:03:59;98146.13;;;13.43;98.22
31483;BME280;18103;52.246;8.052;2023-10-31T01:06:24;98153.63;;;13.40;97.62
31483;BME280;18103;52.246;8.052;2023-10-31T01:08:50;98151.72;;;13.33;99.02
31483;BME280;18103;52.246;8.052;2023-10-31T01:11:15;98141.19;;;13.40;97.09
31483;BME280;18103;52.246;8.052;2023-10-31T01:13:40;98134.97;;;13.33;98.74
31483;BME280;18103;52.246;8.052;2023-10-31T01:16:08;98123.97;;;13.29;98.63
31483;BME280;18103;52.246;8.052;2023-10-31T01:18:33;98134.97;;;13.33;97.97
31483;BME280;18103;52.246;8.052;2023-10-31T01:20:59;98129.81;;;13.18;99.92
31483;BME280;18103;52.246;8.052;2023-10-31T01:23:26;98128.97;;;13.17;100.00
31483;BME280;18103;52.246;8.052;2023-10-31T01:25:56;98125.38;;;13.25;99.08
31483;BME280;18103;52.246;8.052;2023-10-31T01:28:22;98127.81;;;13.27;99.87
31483;BME280;18103;52.246;8.052;2023-10-31T01:30:50;98128.22;;;13.24;99.85
31483;BME280;18103;52.246;8.052;2023-10-31T01:33:16;98124.44;;;13.11;100.00
31483;BME280;18103;52.246;8.052;2023-10-31T01:35:43;98120.00;;;13.18;100.00
31483;BME280;18103;52.246;8.052;2023-10-31T01:38:09;98117.97;;;13.21;99.71
31483;BME280;18103;52.246;8.052;2023-10-31T01:40:36;98116.09;;;13.14;100.00
31483;BME280;18103;52.246;8.052;2023-10-31T01:43:04;98107.22;;;13.22;99.51
31483;BME280;18103;52.246;8.052;2023-10-31T01:45:32;98113.91;;;13.18;100.00
31483;BME280;18103;52.246;8.052;2023-10-31T01:47:58;98106.50;;;13.07;100.00
31483;BME280;18103;52.246;8.052;2023-10-31T01:50:23;98120.41;;;13.15;100.00
31483;BME280;18103;52.246;8.052;2023-10-31T01:52:52;98121.22;;;13.16;100.00
31483;BME280;18103;52.246;8.052;2023-10-31T01:55:18;98116.06;;;13.08;100.00
31483;BME280;18103;52.246;8.052;2023-10-31T01:57:48;98116.69;;;13.10;100.00
31483;BME280;18103;52.246;8.052;2023-10-31T02:00:14;98109.81;;;13.15;100.00
31483;BME280;18103;52.246;8.052;2023-10-31T02:02:41;98110.00;;;13.14;100.00
31483;BME280;18103;52.246;8.052;2023-10-31T02:05:15;98119.34;;;13.10;100.00
31483;BME280;18103;52.246;8.052;2023-10-31T02:07:44;98110.63;;;13.16;100.00
31483;BME280;18103;52.246;8.052;2023-10-31T02:10:10;98106.56;;;13.20;99.83
31483;BME280;18103;52.246;8.052;2023-10-31T02:12:38;98106.09;;;13.10;100.00
31483;BME280;18103;52.246;8.052;2023-10-31T02:15:08;98108.81;;;13.23;100.00
31483;BME280;18103;52.246;8.052;2023-10-31T02:17:36;98104.13;;;13.18;99.80
31483;BME280;18103;52.246;8.052;2023-10-31T02:20:02;98110.41;;;13.17;99.81
31483;BME280;18103;52.246;8.052;2023-10-31T02:22:30;98099.97;;;13.09;100.00
31483;BME280;18103;52.246;8.052;2023-10-31T02:24:55;98100.94;;;13.01;100.00
31483;BME280;18103;52.246;8.052;2023-10-31T02:27:21;98100.28;;;12.93;100.00
31483;BME280;18103;52.246;8.052;2023-10-31T02:29:51;98096.16;;;12.90;100.00
31483;BME280;18103;52.246;8.052;2023-10-31T02:32:19;98104.25;;;12.82;100.00
31483;BME280;18103;52.246;8.052;2023-10-31T02:34:45;98098.78;;;12.62;100.00
31483;BME280;18103;52.246;8.052;2023-10-31T02:37:13;98114.13;;;12.52;100.00
31483;BME280;18103;52.246;8.052;2023-10-31T02:39:40;98103.75;;;12.50;100.00
31483;BME280;18103;52.246;8.052;2023-10-31T02:42:08;98118.84;;;12.35;100.00
31483;BME280;18103;52.246;8.052;2023-10-31T02:44:34;98121.41;;;12.28;100.00
31483;BME280;18103;52.246;8.052;2023-10-31T02:46:59;98133.66;;;12.14;100.00
31483;BME280;18103;52.246;8.052;2023-10-31T02:49:28;98127.66;;;12.20;100.00
31483;BME280;18103;52.246;8.052;2023-10-31T02:51:53;98127.84;;;12.19;100.00
31483;BME280;18103;52.246;8.052;2023-10-31T02:54:21;98142.78;;;12.26;100.00
31483;BME280;18103;52.246;8.052;2023-10-31T02:56:46;98135.13;;;12.17;100.00
31483;BME280;18103;52.246;8.052;2023-10-31T02:59:12;98161.97;;;11.98;100.00
31483;BME280;18103;52.246;8.052;2023-10-31T03:01:37;98158.09;;;11.86;100.00
31483;BME280;18103;52.246;8.052;2023-10-31T03:04:02;98159.22;;;11.77;100.00
31483;BME280;18103;52.246;8.052;2023-10-31T03:06:28;98169.41;;;11.80;100.00
31483;BME280;18103;52.246;8.052;2023-10-31T03:08:56;98179.44;;;11.85;100.00
31483;BME280;18103;52.246;8.052;2023-10-31T03:11:25;98187.63;;;11.75;100.00
31483;BME280;18103;52.246;8.052;2023-10-31T03:13:51;98192.53;;;11.48;100.00
31483;BME280;18103;52.246;8.052;2023-10-31T03:16:17;98204.81;;;11.41;100.00
31483;BME280;18103;52.246;8.052;2023-10-31T03:18:43;98205.94;;;11.46;100.00
31483;BME280;18103;52.246;8.052;2023-10-31T03:21:10;98212.38;;;11.29;99.65
31483;BME280;18103;52.246;8.052;2023-10-31T03:23:36;98214.72;;;11.24;99.50
31483;BME280;18103;52.246;8.052;2023-10-31T03:26:01;98226.03;;;11.33;99.55
31483;BME280;18103;52.246;8.052;2023-10-31T03:28:26;98229.44;;;11.18;99.75
31483;BME280;18103;52.246;8.052;2023-10-31T03:30:54;98250.84;;;11.00;99.63
31483;BME280;18103;52.246;8.052;2023-10-31T03:33:19;98237.44;;;11.10;99.41
31483;BME280;18103;52.246;8.052;2023-10-31T03:35:45;98239.25;;;11.09;99.28
31483;BME280;18103;52.246;8.052;2023-10-31T03:38:11;98238.06;;;10.89;99.89
31483;BME280;18103;52.246;8.052;2023-10-31T03:40:39;98249.69;;;11.03;99.13
31483;BME280;18103;52.246;8.052;2023-10-31T03:43:05;98253.25;;;10.87;99.58
31483;BME280;18103;52.246;8.052;2023-10-31T03:45:32;98261.88;;;10.81;99.79
31483;BME280;18103;52.246;8.052;2023-10-31T03:48:00;98265.44;;;10.88;99.78
31483;BME280;18103;52.246;8.052;2023-10-31T03:50:25;98265.31;;;10.81;99.61
31483;BME280;18103;52.246;8.052;2023-10-31T03:52:51;98272.81;;;10.69;99.85
31483;BME280;18103;52.246;8.052;2023-10-31T03:55:17;98268.66;;;10.75;99.86
31483;BME280;18103;52.246;8.052;2023-10-31T03:57:43;98271.75;;;10.78;99.54
31483;BME280;18103;52.246;8.052;2023-10-31T04:00:09;98271.94;;;10.77;99.84
31483;BME280;18103;52.246;8.052;2023-10-31T04:02:36;98281.41;;;10.63;100.00
31483;BME280;18103;52.246;8.052;2023-10-31T04:05:02;98286.16;;;10.76;99.87
31483;BME280;18103;52.246;8.052;2023-10-31T04:07:27;98295.41;;;10.72;100.00
31483;BME280;18103;52.246;8.052;2023-10-31T04:09:53;98299.22;;;10.61;100.00
31483;BME280;18103;52.246;8.052;2023-10-31T04:12:19;98295.13;;;10.58;100.00
31483;BME280;18103;52.246;8.052;2023-10-31T04:14:45;98303.34;;;10.64;100.00
31483;BME280;18103;52.246;8.052;2023-10-31T04:17:10;98311.13;;;10.57;100.00
31483;BME280;18103;52.246;8.052;2023-10-31T04:19:39;98314.91;;;10.54;100.00
31483;BME280;18103;52.246;8.052;2023-10-31T04:22:07;98318.69;;;10.60;100.00
31483;BME280;18103;52.246;8.052;2023-10-31T04:24:32;98314.75;;;10.56;100.00
31483;BME280;18103;52.246;8.052;2023-10-31T04:26:58;98323.19;;;10.51;100.00
31483;BME280;18103;52.246;8.052;2023-10-31T04:29:23;98319.59;;;10.44;100.00
31483;BME280;18103;52.246;8.052;2023-10-31T04:31:54;98321.88;;;10.47;100.00
31483;BME280;18103;52.246;8.052;2023-10-31T04:34:19;98325.44;;;10.63;100.00
31483;BME280;18103;52.246;8.052;2023-10-31T04:36:47;98332.84;;;10.59;100.00
31483;BME280;18103;52.246;8.052;2023-10-31T04:39:12;98346.91;;;10.59;100.00
31483;BME280;18103;52.246;8.052;2023-10-31T04:41:37;98338.84;;;10.44;100.00
31483;BME280;18103;52.246;8.052;2023-10-31T04:44:03;98343.97;;;10.38;100.00
31483;BME280;18103;52.246;8.052;2023-10-31T04:46:28;98359.16;;;10.44;100.00
31483;BME280;18103;52.246;8.052;2023-10-31T04:48:56;98353.19;;;10.34;100.00
31483;BME280;18103;52.246;8.052;2023-10-31T04:51:21;98362.44;;;10.38;100.00
31483;BME280;18103;52.246;8.052;2023-10-31T04:53:47;98373.31;;;10.43;100.00
31483;BME280;18103;52.246;8.052;2023-10-31T04:56:18;98376.47;;;10.38;100.00
31483;BME280;18103;52.246;8.052;2023-10-31T04:58:46;98368.91;;;10.35;100.00
31483;BME280;18103;52.246;8.052;2023-10-31T05:01:13;98366.88;;;10.46;100.00
31483;BME280;18103;52.246;8.052;2023-10-31T05:03:40;98378.09;;;10.39;100.00
31483;BME280;18103;52.246;8.052;2023-10-31T05:06:08;98379.41;;;10.43;100.00
31483;BME280;18103;52.246;8.052;2023-10-31T05:08:36;98391.78;;;10.43;100.00
31483;BME280;18103;52.246;8.052;2023-10-31T05:11:03;98388.16;;;10.36;100.00
31483;BME280;18103;52.246;8.052;2023-10-31T05:13:33;98399.19;;;10.48;100.00
31483;BME280;18103;52.246;8.052;2023-10-31T05:15:59;98407.94;;;10.40;100.00
31483;BME280;18103;52.246;8.052;2023-10-31T05:18:29;98407.78;;;10.41;100.00
31483;BME280;18103;52.246;8.052;2023-10-31T05:20:54;98408.91;;;10.47;100.00
31483;BME280;18103;52.246;8.052;2023-10-31T05:23:19;98415.00;;;10.39;100.00
31483;BME280;18103;52.246;8.052;2023-10-31T05:25:47;98418.50;;;10.40;100.00
31483;BME280;18103;52.246;8.052;2023-10-31T05:28:13;98412.53;;;10.46;100.00
31483;BME280;18103;52.246;8.052;2023-10-31T05:30:38;98410.56;;;10.40;100.00
31483;BME280;18103;52.246;8.052;2023-10-31T05:33:03;98410.25;;;10.43;100.00
31483;BME280;18103;52.246;8.052;2023-10-31T05:35:31;98413.69;;;10.43;100.00
31483;BME280;18103;52.246;8.052;2023-10-31T05:37:57;98412.38;;;10.39;100.00
31483;BME280;18103;52.246;8.052;2023-10-31T05:40:23;98414.19;;;10.39;100.00
31483;BME280;18103;52.246;8.052;2023-10-31T05:42:54;98422.44;;;10.44;100.00
31483;BME280;18103;52.246;8.052;2023-10-31T05:45:20;98420.16;;;10.41;100.00
31483;BME280;18103;52.246;8.052;2023-10-31T05:47:48;98426.22;;;10.33;100.00
31483;BME280;18103;52.246;8.052;2023-10-31T05:50:13;98435.31;;;10.39;100.00
31483;BME280;18103;52.246;8.052;2023-10-31T05:52:39;98433.34;;;10.41;100.00
31483;BME280;18103;52.246;8.052;2023-10-31T05:55:07;98443.03;;;10.49;99.90
31483;BME280;18103;52.246;8.052;2023-10-31T05:57:33;98450.78;;;10.50;99.47
31483;BME280;18103;52.246;8.052;2023-10-31T06:00:01;98450.78;;;10.50;99.78
31483;BME280;18103;52.246;8.052;2023-10-31T06:02:27;98465.63;;;10.43;99.95
31483;BME280;18103;52.246;8.052;2023-10-31T06:04:52;98463.16;;;10.41;99.92
31483;BME280;18103;52.246;8.052;2023-10-31T06:07:18;98462.16;;;10.51;99.68
31483;BME280;18103;52.246;8.052;2023-10-31T06:09:43;98469.25;;;10.50;100.00
31483;BME280;18103;52.246;8.052;2023-10-31T06:12:14;98473.69;;;10.50;100.00
31483;BME280;18103;52.246;8.052;2023-10-31T06:14:39;98472.06;;;10.40;100.00
31483;BME280;18103;52.246;8.052;2023-10-31T06:17:04;98477.28;;;10.32;100.00
31483;BME280;18103;52.246;8.052;2023-10-31T06:19:34;98482.13;;;10.37;100.00
31483;BME280;18103;52.246;8.052;2023-10-31T06:21:59;98488.84;;;10.31;100.00
31483;BME280;18103;52.246;8.052;2023-10-31T06:24:24;98491.31;;;10.24;100.00
31483;BME280;18103;52.246;8.052;2023-10-31T06:26:50;98491.63;;;10.30;100.00
31483;BME280;18103;52.246;8.052;2023-10-31T06:29:15;98495.91;;;10.31;100.00
31483;BME280;18103;52.246;8.052;2023-10-31T06:31:43;98493.97;;;10.33;100.00
31483;BME280;18103;52.246;8.052;2023-10-31T06:34:09;98510.75;;;10.32;100.00
31483;BME280;18103;52.246;8.052;2023-10-31T06:36:37;98513.28;;;10.41;100.00
31483;BME280;18103;52.246;8.052;2023-10-31T06:39:02;98514.75;;;10.36;100.00
31483;BME280;18103;52.246;8.052;2023-10-31T06:41:28;98522.00;;;10.42;100.00
31483;BME280;18103;52.246;8.052;2023-10-31T06:43:53;98525.09;;;10.29;100.00
31483;BME280;18103;52.246;8.052;2023-10-31T06:46:21;98530.75;;;10.34;100.00
31483;BME280;18103;52.246;8.052;2023-10-31T06:48:46;98537.50;;;10.37;100.00
31483;BME280;18103;52.246;8.052;2023-10-31T06:51:12;98541.59;;;10.39;100.00
31483;BME280;18103;52.246;8.052;2023-10-31T06:53:39;98549.50;;;10.23;100.00
31483;BME280;18103;52.246;8.052;2023-10-31T06:56:07;98543.22;;;10.32;100.00
31483;BME280;18103;52.246;8.052;2023-10-31T06:58:33;98553.94;;;10.22;100.00
31483;BME280;18103;52.246;8.052;2023-10-31T07:01:00;98555.06;;;10.20;100.00
31483;BME280;18103;52.246;8.052;2023-10-31T07:03:26;98548.63;;;10.14;100.00
31483;BME280;18103;52.246;8.052;2023-10-31T07:05:51;98548.00;;;10.20;100.00
31483;BME280;18103;52.246;8.052;2023-10-31T07:08:23;98552.13;;;10.23;100.00
31483;BME280;18103;52.246;8.052;2023-10-31T07:10:48;98553.91;;;10.14;100.00
31483;BME280;18103;52.246;8.052;2023-10-31T07:13:17;98551.78;;;10.18;100.00
31483;BME280;18103;52.246;8.052;2023-10-31T07:15:43;98553.44;;;10.19;100.00
31483;BME280;18103;52.246;8.052;2023-10-31T07:18:08;98556.88;;;10.11;100.00
31483;BME280;18103;52.246;8.052;2023-10-31T07:20:34;98561.69;;;10.16;100.00
31483;BME280;18103;52.246;8.052;2023-10-31T07:23:01;98562.47;;;10.08;100.00
31483;BME280;18103;52.246;8.052;2023-10-31T07:25:29;98574.69;;;10.17;100.00
31483;BME280;18103;52.246;8.052;2023-10-31T07:27:54;98573.53;;;10.12;100.00
31483;BME280;18103;52.246;8.052;2023-10-31T07:30:22;98568.94;;;10.22;100.00
31483;BME280;18103;52.246;8.052;2023-10-31T07:32:52;98569.31;;;10.35;99.59
31483;BME280;18103;52.246;8.052;2023-10-31T07:35:19;98584.13;;;10.36;100.00
31483;BME280;18103;52.246;8.052;2023-10-31T07:37:47;98580.88;;;10.42;100.00
31483;BME280;18103;52.246;8.052;2023-10-31T07:40:13;98585.47;;;10.49;100.00
31483;BME280;18103;52.246;8.052;2023-10-31T07:42:39;98590.91;;;10.47;99.58
31483;BME280;18103;52.246;8.052;2023-10-31T07:45:05;98592.41;;;10.41;100.00
31483;BME280;18103;52.246;8.052;2023-10-31T07:47:30;98600.97;;;10.52;99.74
31483;BME280;18103;52.246;8.052;2023-10-31T07:49:58;98600.81;;;10.53;99.59
31483;BME280;18103;52.246;8.052;2023-10-31T07:52:24;98599.00;;;10.54;100.00
31483;BME280;18103;52.246;8.052;2023-10-31T07:54:49;98603.44;;;10.53;100.00
31483;BME280;18103;52.246;8.052;2023-10-31T07:57:17;98597.69;;;10.58;100.00
31483;BME280;18103;52.246;8.052;2023-10-31T07:59:42;98602.63;;;10.61;99.78
31483;BME280;18103;52.246;8.052;2023-10-31T08:02:08;98599.84;;;10.63;99.96
31483;BME280;18103;52.246;8.052;2023-10-31T08:04:33;98599.03;;;10.70;100.00
31483;BME280;18103;52.246;8.052;2023-10-31T08:06:58;98592.25;;;10.68;99.79
31483;BME280;18103;52.246;8.052;2023-10-31T08:09:24;98606.75;;;10.55;100.00
31483;BME280;18103;52.246;8.052;2023-10-31T08:11:49;98612.84;;;10.48;99.98
31483;BME280;18103;52.246;8.052;2023-10-31T08:14:19;98603.28;;;10.47;100.00
31483;BME280;18103;52.246;8.052;2023-10-31T08:16:47;98615.16;;;10.51;100.00
31483;BME280;18103;52.246;8.052;2023-10-31T08:19:15;98615.97;;;10.51;100.00
31483;BME280;18103;52.246;8.052;2023-10-31T08:21:40;98620.28;;;10.52;100.00
31483;BME280;18103;52.246;8.052;2023-10-31T08:24:09;98632.78;;;10.50;100.00
31483;BME280;18103;52.246;8.052;2023-10-31T08:26:35;98640.53;;;10.52;100.00
31483;BME280;18103;52.246;8.052;2023-10-31T08:29:00;98628.50;;;10.57;99.82
31483;BME280;18103;52.246;8.052;2023-10-31T08:31:28;98632.00;;;10.58;99.95
31483;BME280;18103;52.246;8.052;2023-10-31T08:33:56;98627.69;;;10.57;100.00
31483;BME280;18103;52.246;8.052;2023-10-31T08:36:21;98638.25;;;10.65;99.74
31483;BME280;18103;52.246;8.052;2023-10-31T08:38:49;98633.81;;;10.74;99.56
31483;BME280;18103;52.246;8.052;2023-10-31T08:41:14;98625.56;;;10.69;99.05
31483;BME280;18103;52.246;8.052;2023-10-31T08:43:45;98628.69;;;10.72;99.44
31483;BME280;18103;52.246;8.052;2023-10-31T08:46:13;98634.97;;;10.79;99.21
31483;BME280;18103;52.246;8.052;2023-10-31T08:48:45;98645.69;;;10.78;98.43
31483;BME280;18103;52.246;8.052;2023-10-31T08:51:13;98642.88;;;10.79;98.96
31483;BME280;18103;52.246;8.052;2023-10-31T08:53:38;98645.03;;;10.76;98.95
31483;BME280;18103;52.246;8.052;2023-10-31T08:56:04;98643.06;;;10.78;99.44
31483;BME280;18103;52.246;8.052;2023-10-31T08:58:29;98648.66;;;10.83;98.39
31483;BME280;18103;52.246;8.052;2023-10-31T09:01:00;98654.59;;;10.77;98.51
31483;BME280;18103;52.246;8.052;2023-10-31T09:03:28;98656.75;;;10.82;98.42
31483;BME280;18103;52.246;8.052;2023-10-31T09:05:53;98657.41;;;10.84;98.66
31483;BME280;18103;52.246;8.052;2023-10-31T09:08:24;98666.13;;;10.84;97.95
31483;BME280;18103;52.246;8.052;2023-10-31T09:10:49;98660.22;;;10.90;98.42
31483;BME280;18103;52.246;8.052;2023-10-31T09:13:17;98673.91;;;10.94;98.26
31483;BME280;18103;52.246;8.052;2023-10-31T09:15:44;98675.38;;;10.88;98.60
31483;BME280;18103;52.246;8.052;2023-10-31T09:18:11;98680.50;;;10.98;97.72
31483;BME280;18103;52.246;8.052;2023-10-31T09:20:36;98688.09;;;10.93;98.06
31483;BME280;18103;52.246;8.052;2023-10-31T09:23:04;98696.34;;;10.90;98.15
31483;BME280;18103;52.246;8.052;2023-10-31T09:25:30;98697.66;;;10.94;97.73
31483;BME280;18103;52.246;8.052;2023-10-31T09:27:55;98705.59;;;10.86;98.71
31483;BME280;18103;52.246;8.052;2023-10-31T09:30:23;98711.34;;;10.89;99.33
31483;BME280;18103;52.246;8.052;2023-10-31T09:32:51;98719.28;;;10.98;99.16
31483;BME280;18103;52.246;8.052;2023-10-31T09:35:19;98714.16;;;10.88;99.70
31483;BME280;18103;52.246;8.052;2023-10-31T09:37:44;98720.44;;;10.95;99.61
31483;BME280;18103;52.246;8.052;2023-10-31T09:40:14;98726.41;;;11.05;98.96
31483;BME280;18103;52.246;8.052;2023-10-31T09:42:40;98729.50;;;11.01;99.44
31483;BME280;18103;52.246;8.052;2023-10-31T09:45:05;98724.56;;;10.98;99.88
31483;BME280;18103;52.246;8.052;2023-10-31T09:47:31;98733.97;;;10.92;100.00
31483;BME280;18103;52.246;8.052;2023-10-31T09:49:58;98739.41;;;10.90;100.00
31483;BME280;18103;52.246;8.052;2023-10-31T09:52:23;98744.53;;;11.00;100.00
31483;BME280;18103;52.246;8.052;2023-10-31T09:54:51;98735.47;;;10.94;100.00
31483;BME280;18103;52.246;8.052;2023-10-31T09:57:19;98738.25;;;10.93;100.00
31483;BME280;18103;52.246;8.052;2023-10-31T09:59:47;98743.34;;;10.86;100.00
31483;BME280;18103;52.246;8.052;2023-10-31T10:02:13;98757.91;;;10.99;100.00
31483;BME280;18103;52.246;8.052;2023-10-31T10:04:39;98764.00;;;10.99;99.85
31483;BME280;18103;52.246;8.052;2023-10-31T10:07:09;98764.50;;;10.94;100.00
31483;BME280;18103;52.246;8.052;2023-10-31T10:09:44;98767.16;;;11.03;100.00
31483;BME280;18103;52.246;8.052;2023-10-31T10:12:14;98778.72;;;11.10;100.00
31483;BME280;18103;52.246;8.052;2023-10-31T10:14:44;98768.16;;;11.18;100.00
31483;BME280;18103;52.246;8.052;2023-10-31T10:17:23;98779.03;;;11.23;100.00
31483;BME280;18103;52.246;8.052;2023-10-31T10:22:30;98785.34;;;11.47;100.00
31483;BME280;18103;52.246;8.052;2023-10-31T10:24:55;98776.75;;;11.53;100.00
31483;BME280;18103;52.246;8.052;2023-10-31T10:27:23;98788.47;;;11.59;100.00
31483;BME280;18103;52.246;8.052;2023-10-31T10:29:53;98791.47;;;11.64;100.00
31483;BME280;18103;52.246;8.052;2023-10-31T10:32:18;98793.94;;;11.74;100.00
31483;BME280;18103;52.246;8.052;2023-10-31T10:34:45;98796.59;;;11.66;100.00
31483;BME280;18103;52.246;8.052;2023-10-31T10:37:13;98796.25;;;11.69;99.42
31483;BME280;18103;52.246;8.052;2023-10-31T10:39:39;98800.03;;;11.66;100.00
31483;BME280;18103;52.246;8.052;2023-10-31T10:42:09;98804.81;;;11.62;98.77
31483;BME280;18103;52.246;8.052;2023-10-31T10:44:36;98811.25;;;11.68;98.86
31483;BME280;18103;52.246;8.052;2023-10-31T10:47:05;98819.34;;;11.75;99.04
31483;BME280;18103;52.246;8.052;2023-10-31T10:49:35;98814.41;;;11.72;99.21
31483;BME280;18103;52.246;8.052;2023-10-31T10:52:13;98826.31;;;11.76;98.93
31483;BME280;18103;52.246;8.052;2023-10-31T10:54:48;98829.75;;;11.85;98.88
31483;BME280;18103;52.246;8.052;2023-10-31T10:59:50;98841.81;;;11.79;98.56
31483;BME280;18103;52.246;8.052;2023-10-31T11:02:19;98843.97;;;11.92;98.58
31483;BME280;18103;52.246;8.052;2023-10-31T11:04:47;98851.41;;;11.80;98.04
31483;BME280;18103;52.246;8.052;2023-10-31T11:07:13;98844.97;;;11.82;98.10
31483;BME280;18103;52.246;8.052;2023-10-31T11:09:41;98841.19;;;11.85;98.06
31483;BME280;18103;52.246;8.052;2023-10-31T11:12:10;98841.31;;;11.92;97.45
31483;BME280;18103;52.246;8.052;2023-10-31T11:14:36;98843.81;;;11.93;98.13
31483;BME280;18103;52.246;8.052;2023-10-31T11:17:08;98849.41;;;11.90;97.42
31483;BME280;18103;52.246;8.052;2023-10-31T11:19:37;98852.56;;;11.86;97.15
31483;BME280;18103;52.246;8.052;2023-10-31T11:22:02;98856.56;;;11.98;96.68
31483;BME280;18103;52.246;8.052;2023-10-31T11:24:31;98869.41;;;11.93;96.68
31483;BME280;18103;52.246;8.052;2023-10-31T11:27:04;98856.06;;;11.94;96.71
31483;BME280;18103;52.246;8.052;2023-10-31T11:29:33;98855.59;;;11.99;96.76
31483;BME280;18103;52.246;8.052;2023-10-31T11:32:00;98854.41;;;12.02;96.89
31483;BME280;18103;52.246;8.052;2023-10-31T11:34:29;98858.34;;;12.06;96.98
31483;BME280;18103;52.246;8.052;2023-10-31T11:40:21;98869.63;;;12.00;96.39
31483;BME280;18103;52.246;8.052;2023-10-31T11:42:52;98873.03;;;11.92;96.11
31483;BME280;18103;52.246;8.052;2023-10-31T11:45:48;98877.72;;;11.98;95.79
31483;BME280;18103;52.246;8.052;2023-10-31T11:48:16;98874.53;;;11.86;95.51
31483;BME280;18103;52.246;8.052;2023-10-31T11:50:41;98886.13;;;11.93;95.47
31483;BME280;18103;52.246;8.052;2023-10-31T11:53:12;98878.06;;;11.95;95.94
31483;BME280;18103;52.246;8.052;2023-10-31T11:55:42;98884.66;;;11.99;95.38
31483;BME280;18103;52.246;8.052;2023-10-31T12:00:39;98886.13;;;12.10;94.84
31483;BME280;18103;52.246;8.052;2023-10-31T12:03:05;98877.03;;;12.12;94.11
31483;BME280;18103;52.246;8.052;2023-10-31T12:05:32;98888.28;;;12.06;95.52
31483;BME280;18103;52.246;8.052;2023-10-31T12:08:00;98891.06;;;12.21;96.08
31483;BME280;18103;52.246;8.052;2023-10-31T12:10:28;98894.38;;;12.31;95.70
31483;BME280;18103;52.246;8.052;2023-10-31T12:12:56;98889.72;;;12.50;95.69
31483;BME280;18103;52.246;8.052;2023-10-31T12:15:26;98893.16;;;12.59;95.40
31483;BME280;18103;52.246;8.052;2023-10-31T12:17:52;98905.06;;;12.55;94.14
31483;BME280;18103;52.246;8.052;2023-10-31T12:20:24;98900.44;;;12.65;93.63
31483;BME280;18103;52.246;8.052;2023-10-31T12:23:01;98898.94;;;12.62;93.29
31483;BME280;18103;52.246;8.052;2023-10-31T12:25:27;98910.34;;;12.63;94.05
31483;BME280;18103;52.246;8.052;2023-10-31T12:27:55;98904.06;;;12.64;93.92
31483;BME280;18103;52.246;8.052;2023-10-31T12:30:21;98920.13;;;12.62;94.20
31483;BME280;18103;52.246;8.052;2023-10-31T12:32:56;98925.78;;;12.51;93.33
31483;BME280;18103;52.246;8.052;2023-10-31T12:35:26;98921.81;;;12.55;92.84
31483;BME280;18103;52.246;8.052;2023-10-31T12:37:51;98930.22;;;12.59;92.69
31483;BME280;18103;52.246;8.052;2023-10-31T12:40:19;98920.50;;;12.43;92.54
31483;BME280;18103;52.246;8.052;2023-10-31T12:42:49;98930.09;;;12.52;92.53
31483;BME280;18103;52.246;8.052;2023-10-31T12:45:18;98928.72;;;12.64;92.75
31483;BME280;18103;52.246;8.052;2023-10-31T12:47:59;98927.44;;;12.52;92.48
31483;BME280;18103;52.246;8.052;2023-10-31T12:50:27;98921.91;;;12.70;93.06
31483;BME280;18103;52.246;8.052;2023-10-31T12:52:55;98921.06;;;12.86;92.66
31483;BME280;18103;52.246;8.052;2023-10-31T12:55:24;98925.00;;;12.98;92.18
31483;BME280;18103;52.246;8.052;2023-10-31T12:57:52;98926.56;;;13.16;91.38
31483;BME280;18103;52.246;8.052;2023-10-31T13:00:19;98927.50;;;13.23;90.90
31483;BME280;18103;52.246;8.052;2023-10-31T13:02:51;98930.31;;;13.30;90.03
31483;BME280;18103;52.246;8.052;2023-10-31T13:05:17;98929.25;;;13.47;89.85